Time;durP1;ratioP1;P1;durP2;ratioP2;P2;SDS_P1;SDS_P2;PMS_P1;PMS_P2;Temp;Humidity;BMP_temperature;BMP_pressure;BME280_temperature;BME280_humidity;BME280_pressure;Samples;Min_cycle;Max_cycle;Signal;HPM_P1;HPM_P2
2024/03/12 00:03:17;;;;;;;1999.90;999.90;;;;;;;9.01;100.00;100812.09;10456201;28;20051;-70
2024/03/12 00:08:20;;;;;;;1999.90;999.90;;;;;;;8.96;100.00;100809.72;10455976;28;20124;-70
2024/03/12 00:13:23;;;;;;;1999.90;999.90;;;;;;;8.47;100.00;100823.44;10455852;28;20120;-70
2024/03/12 00:18:25;;;;;;;1999.90;999.90;;;;;;;8.66;100.00;100828.59;10454765;28;20053;-70
2024/03/12 00:23:28;;;;;;;1999.90;999.90;;;;;;;8.25;100.00;100835.75;10455679;28;20081;-70
2024/03/12 00:28:33;;;;;;;1999.90;999.90;;;;;;;8.19;100.00;100840.34;10455782;28;20049;-70
2024/03/12 00:33:35;;;;;;;1999.90;999.90;;;;;;;8.32;100.00;100850.19;10455531;28;20049;-70
2024/03/12 00:38:38;;;;;;;1999.90;999.90;;;;;;;7.72;100.00;100847.75;10454668;28;20494;-70
2024/03/12 00:43:42;;;;;;;1999.90;999.90;;;;;;;7.00;100.00;100875.94;10455915;28;20128;-70
2024/03/12 00:48:46;;;;;;;1999.90;999.90;;;;;;;7.12;100.00;100882.41;10455249;28;20128;-70
2024/03/12 00:53:49;;;;;;;1999.90;999.90;;;;;;;7.47;100.00;100887.91;10455323;28;20049;-70
2024/03/12 00:58:51;;;;;;;1999.90;999.90;;;;;;;7.26;100.00;100900.06;10453707;28;20060;-70
2024/03/12 01:03:54;;;;;;;1999.90;999.90;;;;;;;7.57;100.00;100909.19;10453751;28;20041;-71
2024/03/12 01:08:57;;;;;;;1999.90;999.90;;;;;;;7.19;100.00;100907.28;10455177;28;20053;-70
2024/03/12 01:13:59;;;;;;;1999.90;999.90;;;;;;;7.39;100.00;100903.00;10454017;28;20084;-70
2024/03/12 01:19:02;;;;;;;1999.90;999.90;;;;;;;7.13;100.00;100909.28;10454932;28;20095;-70
2024/03/12 01:24:05;;;;;;;1999.90;999.90;;;;;;;7.18;100.00;100910.81;10454107;28;20049;-70
2024/03/12 01:29:07;;;;;;;1999.90;999.90;;;;;;;7.05;100.00;100910.44;10453193;28;20128;-71
2024/03/12 01:34:11;;;;;;;1999.90;999.90;;;;;;;7.25;100.00;100909.63;10462051;28;20086;-70
2024/03/12 01:39:16;;;;;;;1999.90;999.90;;;;;;;7.33;100.00;100911.94;10460617;28;20511;-70
2024/03/12 01:44:19;;;;;;;1999.90;999.90;;;;;;;7.03;100.00;100914.88;10460162;28;20045;-71
2024/03/12 01:49:21;;;;;;;1999.90;999.90;;;;;;;7.21;100.00;100915.91;10460185;28;20585;-70
2024/03/12 01:54:24;;;;;;;1999.90;999.90;;;;;;;7.31;100.00;100923.31;10461032;28;20087;-70
2024/03/12 01:59:26;;;;;;;1999.90;999.90;;;;;;;7.32;100.00;100922.41;10461565;28;20052;-70
2024/03/12 02:04:29;;;;;;;1999.90;999.90;;;;;;;7.52;100.00;100924.19;10459678;28;20041;-70
2024/03/12 02:09:31;;;;;;;1999.90;999.90;;;;;;;7.39;100.00;100923.84;10460735;28;20122;-70
2024/03/12 02:14:34;;;;;;;1999.90;999.90;;;;;;;7.35;100.00;100943.13;10459497;28;20079;-70
2024/03/12 02:19:37;;;;;;;1999.90;999.90;;;;;;;7.76;100.00;100933.53;10460179;28;20452;-70
2024/03/12 02:24:39;;;;;;;1999.90;999.90;;;;;;;7.69;100.00;100942.53;10458784;28;20063;-70
2024/03/12 02:29:44;;;;;;;1999.90;999.90;;;;;;;7.37;100.00;100938.69;10459826;28;20493;-70
2024/03/12 02:34:49;;;;;;;1999.90;999.90;;;;;;;7.69;100.00;100942.53;10459900;28;20048;-70
2024/03/12 02:39:51;;;;;;;1999.90;999.90;;;;;;;7.51;100.00;100945.91;10459736;28;20128;-70
2024/03/12 02:44:55;;;;;;;1999.90;999.90;;;;;;;7.35;100.00;100956.97;10458003;28;20049;-70
2024/03/12 02:49:59;;;;;;;1999.90;999.90;;;;;;;7.93;100.00;100960.63;10459057;28;20493;-70
2024/03/12 02:55:02;;;;;;;1999.90;999.90;;;;;;;7.12;100.00;100960.53;10459108;28;20048;-70
2024/03/12 03:00:14;;;;;;;1999.90;999.90;;;;;;;7.52;100.00;100971.91;10458695;28;20052;-70
2024/03/12 03:05:17;;;;;;;1999.90;999.90;;;;;;;7.60;100.00;100967.22;10457795;28;20083;-69
2024/03/12 03:10:20;;;;;;;1999.90;999.90;;;;;;;7.20;100.00;100976.69;10458322;28;20053;-70
2024/03/12 03:15:22;;;;;;;1999.90;999.90;;;;;;;7.18;100.00;100982.88;10456596;28;20383;-70
2024/03/12 03:20:25;;;;;;;1999.90;999.90;;;;;;;7.37;100.00;100985.56;10457800;28;20567;-70
2024/03/12 03:25:28;;;;;;;1999.90;999.90;;;;;;;7.79;100.00;100984.69;10457539;28;20045;-70
2024/03/12 03:30:30;;;;;;;1999.90;999.90;;;;;;;7.53;100.00;100977.97;10457395;28;20124;-70
2024/03/12 03:35:33;;;;;;;1999.90;999.90;;;;;;;7.36;100.00;100983.88;10456099;28;20052;-70
2024/03/12 03:40:35;;;;;;;1999.90;999.90;;;;;;;7.37;100.00;100996.84;10457035;28;20087;-70
2024/03/12 03:45:38;;;;;;;1999.90;999.90;;;;;;;7.47;100.00;100983.44;10455321;28;20051;-69
2024/03/12 03:50:41;;;;;;;1999.90;999.90;;;;;;;7.28;100.00;100998.97;10456011;28;20060;-69
2024/03/12 03:55:43;;;;;;;1999.90;999.90;;;;;;;7.39;100.00;101005.44;10457033;28;20045;-69
2024/03/12 04:00:46;;;;;;;1999.90;999.90;;;;;;;7.39;100.00;101013.25;10456200;28;20111;-69
2024/03/12 04:05:48;;;;;;;1999.90;999.90;;;;;;;7.49;100.00;101023.31;10455049;28;20053;-69
2024/03/12 04:10:51;;;;;;;1999.90;999.90;;;;;;;7.38;100.00;101021.97;10455902;28;20049;-69
2024/03/12 04:15:55;;;;;;;1999.90;999.90;;;;;;;7.23;100.00;101030.41;10455024;28;20048;-69
2024/03/12 04:20:57;;;;;;;1999.90;999.90;;;;;;;7.12;100.00;101043.00;10454635;28;20103;-69
2024/03/12 04:26:00;;;;;;;1999.90;999.90;;;;;;;7.39;100.00;101051.47;10455229;28;20087;-69
2024/03/12 04:31:06;;;;;;;1999.90;999.90;;;;;;;7.12;100.00;101058.63;10455642;28;20053;-69
2024/03/12 04:36:13;;;;;;;1999.90;999.90;;;;;;;7.25;100.00;101057.25;10455264;28;20052;-69
2024/03/12 04:41:21;;;;;;;1999.90;999.90;;;;;;;7.48;100.00;101058.06;10455513;28;20045;-69
2024/03/12 04:46:24;;;;;;;1999.90;999.90;;;;;;;7.19;100.00;101058.31;10455334;28;20045;-69
2024/03/12 04:51:26;;;;;;;1999.90;999.90;;;;;;;7.07;100.00;101059.63;10455277;28;20072;-69
2024/03/12 04:56:29;;;;;;;1999.90;999.90;;;;;;;7.13;100.00;101071.59;10454844;28;20044;-69
2024/03/12 05:01:31;;;;;;;1999.90;999.90;;;;;;;7.09;100.00;101080.41;10455752;28;20079;-69
2024/03/12 05:06:33;;;;;;;1999.90;999.90;;;;;;;7.31;100.00;101085.63;10457280;28;20076;-69
2024/03/12 05:11:36;;;;;;;1999.90;999.90;;;;;;;7.04;100.00;101098.84;10463058;28;20059;-69
2024/03/12 05:16:39;;;;;;;1999.90;999.90;;;;;;;7.17;100.00;101103.56;10461611;28;20383;-69
2024/03/12 05:21:41;;;;;;;1999.90;999.90;;;;;;;7.03;100.00;101111.91;10462411;28;20083;-69
2024/03/12 05:26:49;;;;;;;1999.90;999.90;;;;;;;6.96;100.00;101108.69;10461308;28;20098;-69
2024/03/12 05:31:52;;;;;;;1999.90;999.90;;;;;;;6.98;100.00;101125.09;10462224;28;20163;-69
2024/03/12 05:37:03;;;;;;;1999.90;999.90;;;;;;;6.90;100.00;101131.50;10462262;28;20045;-69
2024/03/12 05:52:49;;;;;;;1999.90;999.90;;;;;;;6.69;100.00;101159.97;10461327;28;20299;-68
2024/03/12 05:57:52;;;;;;;1999.90;999.90;;;;;;;6.82;100.00;101161.22;10443377;28;20136;-69
2024/03/12 06:02:54;;;;;;;1999.90;999.90;;;;;;;6.96;100.00;101168.56;10460952;28;20053;-69
2024/03/12 06:07:59;;;;;;;1999.90;999.90;;;;;;;6.77;100.00;101180.53;10460100;28;20053;-68
2024/03/12 06:13:02;;;;;;;1999.90;999.90;;;;;;;6.70;100.00;101182.50;10460729;28;20140;-69
2024/03/12 06:18:05;;;;;;;1999.90;999.90;;;;;;;6.86;100.00;101195.81;10457493;28;20510;-69
2024/03/12 06:23:07;;;;;;;1999.90;999.90;;;;;;;6.92;100.00;101194.75;10459176;28;20395;-69
2024/03/12 06:28:11;;;;;;;1999.90;999.90;;;;;;;7.12;100.00;101199.22;10459818;28;20080;-69
2024/03/12 06:33:17;;;;;;;1999.90;999.90;;;;;;;6.91;100.00;101209.53;10459347;28;20099;-68
2024/03/12 06:38:20;;;;;;;1999.90;999.90;;;;;;;6.92;100.00;101212.97;10458465;28;20053;-69
2024/03/12 06:43:23;;;;;;;1999.90;999.90;;;;;;;7.03;100.00;101218.66;10459476;28;20045;-69
2024/03/12 06:48:25;;;;;;;1999.90;999.90;;;;;;;6.95;100.00;101231.94;10459419;28;20053;-69
2024/03/12 06:53:27;;;;;;;1999.90;999.90;;;;;;;6.87;100.00;101234.78;10458608;28;20041;-68
2024/03/12 06:58:30;;;;;;;1999.90;999.90;;;;;;;6.85;100.00;101234.00;10458578;28;20079;-68
2024/03/12 07:03:34;;;;;;;1999.90;999.90;;;;;;;6.87;100.00;101255.59;10440221;28;20482;-68
2024/03/12 07:08:39;;;;;;;1999.90;999.90;;;;;;;6.92;100.00;101249.41;10457162;28;20510;-68
2024/03/12 07:13:43;;;;;;;1999.90;999.90;;;;;;;6.90;100.00;101251.22;10440987;28;20049;-68
2024/03/12 07:18:46;;;;;;;1999.90;999.90;;;;;;;7.07;100.00;101251.47;10458331;28;20076;-69
2024/03/12 07:23:49;;;;;;;1999.90;999.90;;;;;;;6.90;100.00;101257.28;10457612;28;20508;-69
2024/03/12 07:28:51;;;;;;;1999.90;999.90;;;;;;;6.94;100.00;101266.66;10455957;28;20049;-69
2024/03/12 07:33:55;;;;;;;1999.90;999.90;;;;;;;6.84;100.00;101273.09;10457438;28;20041;-69
2024/03/12 07:38:57;;;;;;;1999.90;999.90;;;;;;;6.88;100.00;101274.69;10470183;22;20059;-70
2024/03/12 07:44:00;;;;;;;1999.90;999.90;;;;;;;6.85;100.00;101290.41;10497389;28;20454;-69
2024/03/12 07:49:03;;;;;;;1999.90;999.90;;;;;;;7.02;100.00;101295.88;10497171;28;20123;-70
2024/03/12 07:54:06;;;;;;;1999.90;999.90;;;;;;;7.01;100.00;101286.41;10496645;28;20508;-69
2024/03/12 07:59:09;;;;;;;1999.90;999.90;;;;;;;6.98;100.00;101294.31;10496295;28;20050;-69
2024/03/12 08:04:12;;;;;;;1999.90;999.90;;;;;;;7.23;100.00;101298.66;10497067;28;20401;-69
2024/03/12 08:09:15;;;;;;;1999.90;999.90;;;;;;;7.39;100.00;101293.75;10496150;28;20477;-69
2024/03/12 08:14:18;;;;;;;1999.90;999.90;;;;;;;7.35;100.00;101295.63;10495855;28;20079;-69
2024/03/12 08:19:25;;;;;;;1999.90;999.90;;;;;;;7.27;100.00;101296.81;10479744;28;20051;-71
2024/03/12 08:24:29;;;;;;;1999.90;999.90;;;;;;;7.35;100.00;101303.44;10480009;28;20106;-71
2024/03/12 08:29:31;;;;;;;1999.90;999.90;;;;;;;7.43;100.00;101305.75;10496504;28;20059;-71
2024/03/12 08:34:36;;;;;;;1999.90;999.90;;;;;;;7.41;100.00;101308.44;10479425;28;20048;-71
2024/03/12 08:39:39;;;;;;;1999.90;999.90;;;;;;;7.41;100.00;101313.63;10496092;28;20063;-71
2024/03/12 08:44:43;;;;;;;1999.90;999.90;;;;;;;7.51;100.00;101316.75;10505622;28;20132;-71
2024/03/12 08:49:45;;;;;;;1999.90;999.90;;;;;;;7.09;100.00;101326.94;10505575;28;20049;-71
2024/03/12 08:54:48;;;;;;;1999.90;999.90;;;;;;;7.36;100.00;101333.81;10505215;28;20072;-71
2024/03/12 08:59:50;;;;;;;1999.90;999.90;;;;;;;7.21;100.00;101334.31;10503512;28;20052;-70
2024/03/12 09:04:53;;;;;;;1999.90;999.90;;;;;;;7.12;100.00;101335.47;10503204;28;20052;-70
2024/03/12 09:09:58;;;;;;;1999.90;999.90;;;;;;;7.49;100.00;101348.97;10504455;28;20048;-71
2024/03/12 09:15:02;;;;;;;1999.90;999.90;;;;;;;7.60;100.00;101345.09;10504029;28;20485;-71
2024/03/12 09:20:05;;;;;;;1999.90;999.90;;;;;;;7.52;100.00;101343.66;10486089;28;20572;-71
2024/03/12 09:25:08;;;;;;;1999.90;999.90;;;;;;;7.29;100.00;101340.09;10502506;28;20044;-71
2024/03/12 09:30:12;;;;;;;1999.90;999.90;;;;;;;7.55;100.00;101356.59;10486059;28;20102;-71
2024/03/12 09:35:14;;;;;;;1999.90;999.90;;;;;;;7.31;100.00;101346.09;10502826;28;20045;-71
2024/03/12 09:40:17;;;;;;;1999.90;999.90;;;;;;;7.41;100.00;101354.44;10503414;28;20059;-71
2024/03/12 09:45:20;;;;;;;1999.90;999.90;;;;;;;7.40;100.00;101357.97;10501759;28;20560;-71
2024/03/12 09:50:23;;;;;;;1999.90;999.90;;;;;;;7.69;100.00;101362.13;10502320;28;20056;-70
2024/03/12 09:55:26;;;;;;;1999.90;999.90;;;;;;;7.62;100.00;101368.50;10501575;28;20106;-69
2024/03/12 10:00:29;;;;;;;1999.90;999.90;;;;;;;7.78;100.00;101368.78;10484690;28;20080;-70
2024/03/12 10:05:34;;;;;;;1999.90;999.90;;;;;;;8.14;100.00;101368.31;10469803;28;20040;-69
2024/03/12 10:10:38;;;;;;;1999.90;999.90;;;;;;;8.32;100.00;101371.97;10460883;28;20405;-70
2024/03/12 10:16:01;;;;;;;1999.90;999.90;;;;;;;8.44;100.00;101363.72;10460413;28;20490;-70
2024/03/12 10:21:06;;;;;;;1999.90;999.90;;;;;;;8.54;100.00;101364.19;10442557;28;20057;-70
2024/03/12 10:26:12;;;;;;;1999.90;999.90;;;;;;;8.70;100.00;101362.66;10460105;28;20145;-70
2024/03/12 10:31:16;;;;;;;1999.90;999.90;;;;;;;8.38;100.00;101358.69;10442796;28;20045;-70
2024/03/12 10:36:30;;;;;;;1999.90;999.90;;;;;;;8.66;100.00;101360.25;10442042;28;20071;-70
2024/03/12 10:41:33;;;;;;;1999.90;999.90;;;;;;;8.37;100.00;101356.97;10459161;28;20048;-71
2024/03/12 10:46:45;;;;;;;1999.90;999.90;;;;;;;8.74;100.00;101361.63;10458768;28;20061;-70
2024/03/12 10:51:48;;;;;;;1999.90;999.90;;;;;;;9.09;100.00;101366.28;10441199;28;20406;-70
2024/03/12 10:56:51;;;;;;;1999.90;999.90;;;;;;;8.90;100.00;101377.50;10458896;28;20511;-70
2024/03/12 11:01:53;;;;;;;1999.90;999.90;;;;;;;9.20;100.00;101376.31;10440933;28;20049;-70
2024/03/12 11:06:58;;;;;;;1999.90;999.90;;;;;;;9.58;100.00;101379.00;10440474;28;20103;-70
2024/03/12 11:12:00;;;;;;;1999.90;999.90;;;;;;;9.43;100.00;101376.16;10458336;28;20144;-71
2024/03/12 11:17:03;;;;;;;1999.90;999.90;;;;;;;9.09;100.00;101372.38;10440451;28;20052;-70
2024/03/12 11:22:13;;;;;;;1999.90;999.90;;;;;;;8.80;100.00;101370.97;10440380;28;20076;-70
2024/03/12 11:27:25;;;;;;;1999.90;999.90;;;;;;;9.28;100.00;101363.78;10440185;28;20049;-70
2024/03/12 11:32:29;;;;;;;1999.90;999.90;;;;;;;9.19;100.00;101367.59;10439530;28;20486;-70
2024/03/12 11:37:32;;;;;;;1999.90;999.90;;;;;;;9.35;100.00;101361.75;10440075;28;20049;-70
2024/03/12 11:42:35;;;;;;;1999.90;999.90;;;;;;;9.44;100.00;101361.31;10456951;28;20565;-70
2024/03/12 11:47:39;;;;;;;1999.90;999.90;;;;;;;9.19;100.00;101356.31;10456405;28;20607;-70
2024/03/12 11:52:43;;;;;;;1999.90;999.90;;;;;;;9.85;100.00;101358.63;10456559;28;20056;-70
2024/03/12 11:57:45;;;;;;;1999.90;999.90;;;;;;;10.76;100.00;101351.78;10438568;28;20417;-70
2024/03/12 12:02:48;;;;;;;1999.90;999.90;;;;;;;10.94;100.00;101350.00;10438686;28;20493;-71
2024/03/12 12:07:51;;;;;;;1999.90;999.90;;;;;;;10.58;92.62;101341.28;10438499;28;20470;-70
2024/03/12 12:12:53;;;;;;;1999.90;999.90;;;;;;;11.60;88.24;101336.13;10456787;28;20045;-70
2024/03/12 12:18:11;;;;;;;1999.90;999.90;;;;;;;10.34;88.67;101331.97;10438272;28;20049;-71
2024/03/12 12:23:14;;;;;;;1999.90;999.90;;;;;;;10.34;91.21;101339.81;10437950;28;20048;-71
2024/03/12 12:28:18;;;;;;;1999.90;999.90;;;;;;;10.19;91.12;101339.63;10455232;28;20045;-71
2024/03/12 12:33:24;;;;;;;1999.90;999.90;;;;;;;10.16;91.38;101339.75;10438394;28;20045;-71
2024/03/12 12:38:27;;;;;;;1999.90;999.90;;;;;;;10.52;91.22;101336.34;10421424;28;20099;-71
2024/03/12 12:43:32;;;;;;;1999.90;999.90;;;;;;;10.11;91.58;101335.66;10437839;28;20052;-71
2024/03/12 12:48:35;;;;;;;1999.90;999.90;;;;;;;9.87;90.66;101341.13;10455394;28;20045;-71
2024/03/12 12:53:38;;;;;;;1999.90;999.90;;;;;;;10.48;90.24;101336.56;10455198;28;20188;-70
2024/03/12 12:58:42;;;;;;;1999.90;999.90;;;;;;;10.30;89.87;101346.94;10438253;28;20052;-71
2024/03/12 13:03:46;;;;;;;1999.90;999.90;;;;;;;9.90;90.89;101338.38;10454421;28;20520;-70
2024/03/12 13:08:53;;;;;;;1999.90;999.90;;;;;;;9.41;91.55;101343.16;10437828;28;20045;-70
2024/03/12 13:13:56;;;;;;;1999.90;999.90;;;;;;;9.95;91.79;101336.38;10455266;28;20132;-70
2024/03/12 13:18:58;;;;;;;1999.90;999.90;;;;;;;10.34;92.81;101326.75;10455175;28;20083;-71
2024/03/12 13:24:03;;;;;;;1999.90;999.90;;;;;;;10.00;90.86;101338.75;10454195;28;20452;-71
2024/03/12 13:29:06;;;;;;;1999.90;999.90;;;;;;;10.56;90.26;101323.97;10443090;28;20053;-71
2024/03/12 13:34:08;;;;;;;1999.90;999.90;;;;;;;10.50;89.07;101319.84;10445126;28;20087;-71
2024/03/12 13:39:14;;;;;;;1999.90;999.90;;;;;;;10.31;90.05;101327.72;10428527;28;20104;-71
2024/03/12 13:44:17;;;;;;;1999.90;999.90;;;;;;;10.65;88.34;101323.50;10461462;28;20499;-71
2024/03/12 13:49:22;;;;;;;1999.90;999.90;;;;;;;10.35;89.30;101324.06;10461436;28;20092;-71
2024/03/12 13:54:27;;;;;;;1999.90;999.90;;;;;;;10.56;88.73;101319.56;10443912;28;20132;-71
2024/03/12 13:59:30;;;;;;;1999.90;999.90;;;;;;;11.33;85.94;101312.19;10461384;28;20052;-70
2024/03/12 14:04:35;;;;;;;1999.90;999.90;;;;;;;11.27;83.82;101308.13;10443350;28;20045;-70
2024/03/12 14:09:38;;;;;;;1999.90;999.90;;;;;;;11.07;84.24;101311.78;10460827;28;20473;-70
2024/03/12 14:14:41;;;;;;;1999.90;999.90;;;;;;;10.87;86.09;101310.16;10460578;28;20071;-70
2024/03/12 14:19:44;;;;;;;1999.90;999.90;;;;;;;11.26;83.69;101316.94;10443094;28;20045;-70
2024/03/12 14:24:46;;;;;;;1999.90;999.90;;;;;;;11.42;84.64;101306.47;10460559;28;20048;-70
2024/03/12 14:29:49;;;;;;;1999.90;999.90;;;;;;;11.43;83.06;101300.31;10442242;28;20085;-71
2024/03/12 14:34:52;;;;;;;1999.90;999.90;;;;;;;10.93;84.04;101298.56;10442252;28;20052;-70
2024/03/12 14:39:54;;;;;;;1999.90;999.90;;;;;;;10.92;84.50;101300.31;10458466;28;20115;-70
2024/03/12 14:44:57;;;;;;;1999.90;999.90;;;;;;;10.46;86.08;101292.13;10441679;28;20401;-70
2024/03/12 14:49:59;;;;;;;1999.90;999.90;;;;;;;10.91;84.39;101293.38;10458898;28;20569;-71
2024/03/12 14:55:03;;;;;;;1999.90;999.90;;;;;;;10.89;85.64;101290.00;10458913;28;20481;-71
2024/03/12 15:00:09;;;;;;;1999.90;999.90;;;;;;;10.79;86.26;101288.75;10458763;28;20436;-71
2024/03/12 15:05:12;;;;;;;1999.90;999.90;;;;;;;10.50;87.58;101291.06;10458066;28;20532;-71
2024/03/12 15:10:15;;;;;;;1999.90;999.90;;;;;;;10.76;88.59;101283.69;10458231;28;20434;-71
2024/03/12 15:15:18;;;;;;;1999.90;999.90;;;;;;;10.34;88.05;101290.09;10440689;28;20076;-72
2024/03/12 15:20:20;;;;;;;1999.90;999.90;;;;;;;10.64;89.03;101285.16;10440723;28;20080;-71
2024/03/12 15:25:23;;;;;;;1999.90;999.90;;;;;;;10.82;87.39;101280.75;10457868;28;20107;-71
2024/03/12 15:30:27;;;;;;;1999.90;999.90;;;;;;;10.70;89.57;101274.34;10439900;28;20472;-71
2024/03/12 15:35:30;;;;;;;1999.90;999.90;;;;;;;10.67;89.42;101277.13;10457556;28;20557;-71
2024/03/12 15:40:34;;;;;;;1999.90;999.90;;;;;;;10.44;88.67;101274.78;10455546;28;20428;-71
2024/03/12 15:45:37;;;;;;;1999.90;999.90;;;;;;;10.29;89.07;101274.59;10421823;28;20048;-71
2024/03/12 15:50:39;;;;;;;1999.90;999.90;;;;;;;10.41;90.10;101270.56;10454889;28;20061;-71
2024/03/12 15:55:46;;;;;;;1999.90;999.90;;;;;;;10.32;90.45;101260.53;10437483;28;20132;-71
2024/03/12 16:00:50;;;;;;;1999.90;999.90;;;;;;;10.48;91.74;101268.50;10438455;28;20053;-70
2024/03/12 16:05:53;;;;;;;1999.90;999.90;;;;;;;10.39;90.80;101262.78;10437365;28;20045;-71
2024/03/12 16:10:56;;;;;;;1999.90;999.90;;;;;;;10.52;93.91;101270.03;10486231;28;20131;-71
2024/03/12 16:15:58;;;;;;;1999.90;999.90;;;;;;;10.09;92.26;101264.25;10496042;28;20048;-71
2024/03/12 16:21:01;;;;;;;1999.90;999.90;;;;;;;10.16;92.47;101261.25;10456590;28;20055;-71
2024/03/12 16:26:04;;;;;;;1999.90;999.90;;;;;;;10.01;92.70;101259.38;10436524;28;20049;-71
2024/03/12 16:31:06;;;;;;;1999.90;999.90;;;;;;;9.95;94.31;101262.28;10436359;28;20131;-71
2024/03/12 16:36:09;;;;;;;1999.90;999.90;;;;;;;10.02;94.65;101263.72;10453565;28;20049;-71
2024/03/12 16:41:14;;;;;;;1999.90;999.90;;;;;;;10.13;97.95;101265.78;10428397;28;265010;-71
2024/03/12 16:46:16;;;;;;;1999.90;999.90;;;;;;;9.85;100.00;101282.78;10437899;28;20051;-72
2024/03/12 16:51:19;;;;;;;1999.90;999.90;;;;;;;9.42;100.00;101288.22;10455098;28;20132;-72
2024/03/12 16:56:22;;;;;;;1999.90;999.90;;;;;;;9.45;100.00;101287.25;10455302;28;20075;-72
2024/03/12 17:01:29;;;;;;;1999.90;999.90;;;;;;;9.19;100.00;101286.59;10457155;28;20048;-71
2024/03/12 17:06:36;;;;;;;1999.90;999.90;;;;;;;9.28;100.00;101290.59;10463097;28;20493;-72
2024/03/12 17:11:38;;;;;;;1999.90;999.90;;;;;;;9.10;100.00;101279.19;10463367;28;20049;-71
2024/03/12 17:16:45;;;;;;;1999.90;999.90;;;;;;;9.10;100.00;101287.03;10463214;28;20056;-71
2024/03/12 17:21:48;;;;;;;1999.90;999.90;;;;;;;9.02;100.00;101282.13;10462172;28;20133;-71
2024/03/12 17:26:51;;;;;;;1999.90;999.90;;;;;;;9.10;100.00;101285.25;10444326;28;20103;-71
2024/03/12 17:31:53;;;;;;;1999.90;999.90;;;;;;;9.24;100.00;101274.19;10462223;28;20398;-71
2024/03/12 17:36:59;;;;;;;1999.90;999.90;;;;;;;8.91;100.00;101274.75;10461637;28;20081;-71
2024/03/12 17:42:02;;;;;;;1999.90;999.90;;;;;;;9.13;100.00;101271.22;10444561;28;20059;-71
2024/03/12 17:47:05;;;;;;;1999.90;999.90;;;;;;;9.01;100.00;101267.38;10461503;28;20103;-71
2024/03/12 17:52:08;;;;;;;1999.90;999.90;;;;;;;8.92;100.00;101276.44;10461456;28;20410;-71
2024/03/12 17:57:14;;;;;;;1999.90;999.90;;;;;;;8.91;100.00;101274.75;10461557;28;20474;-72
2024/03/12 18:02:17;;;;;;;1999.90;999.90;;;;;;;8.85;100.00;101275.00;10444061;28;20413;-71
2024/03/12 18:07:24;;;;;;;1999.90;999.90;;;;;;;8.87;100.00;101280.16;10461087;28;20041;-70
2024/03/12 18:12:27;;;;;;;1999.90;999.90;;;;;;;8.60;100.00;101280.41;10460409;28;20078;-71
2024/03/12 18:17:29;;;;;;;1999.90;999.90;;;;;;;8.55;100.00;101284.97;10460710;28;20047;-70
2024/03/12 18:22:32;;;;;;;1999.90;999.90;;;;;;;8.69;100.00;101274.81;10460431;28;20057;-71
2024/03/12 18:27:34;;;;;;;1999.90;999.90;;;;;;;8.66;100.00;101281.94;10459910;28;20533;-70
2024/03/12 18:32:37;;;;;;;1999.90;999.90;;;;;;;8.45;100.00;101278.44;10442151;28;20494;-70
2024/03/12 18:37:41;;;;;;;1999.90;999.90;;;;;;;8.65;100.00;101291.50;10459843;28;20561;-71
2024/03/12 18:42:44;;;;;;;1999.90;999.90;;;;;;;8.62;100.00;101275.97;10459962;28;20087;-71
2024/03/12 18:47:47;;;;;;;1999.90;999.90;;;;;;;8.54;100.00;101275.47;10459310;28;20512;-71
2024/03/12 18:52:51;;;;;;;1999.90;999.90;;;;;;;8.57;100.00;101271.88;10459050;28;20053;-72
2024/03/12 18:57:54;;;;;;;1999.90;999.90;;;;;;;8.52;100.00;101283.34;10458527;28;20048;-71
2024/03/12 19:03:12;;;;;;;1999.90;999.90;;;;;;;8.64;100.00;101274.16;10458706;28;20123;-72
2024/03/12 19:08:14;;;;;;;1999.90;999.90;;;;;;;8.39;100.00;101274.28;10458336;28;20111;-71
2024/03/12 19:13:17;;;;;;;1999.90;999.90;;;;;;;8.50;100.00;101255.59;10440387;28;20049;-71
2024/03/12 19:18:22;;;;;;;1999.90;999.90;;;;;;;8.36;100.00;101250.94;10440400;28;20048;-72
2024/03/12 19:23:25;;;;;;;1999.90;999.90;;;;;;;8.33;100.00;101244.06;10457377;28;20148;-71
2024/03/12 19:28:28;;;;;;;1999.90;999.90;;;;;;;8.29;100.00;101244.28;10457918;28;20087;-71
2024/03/12 19:33:34;;;;;;;1999.90;999.90;;;;;;;8.34;100.00;101231.88;10439799;28;20405;-72
2024/03/12 19:38:36;;;;;;;1999.90;999.90;;;;;;;8.34;100.00;101237.94;10440268;28;20227;-71
2024/03/12 19:43:39;;;;;;;1999.90;999.90;;;;;;;8.23;100.00;101232.31;10457232;28;20132;-71
2024/03/12 19:48:42;;;;;;;1999.90;999.90;;;;;;;8.37;100.00;101232.59;10439172;28;20498;-71
2024/03/12 19:53:47;;;;;;;1999.90;999.90;;;;;;;8.10;100.00;101234.59;10467977;22;20116;-74
2024/03/12 19:58:53;;;;;;;1999.90;999.90;;;;;;;8.17;100.00;101233.41;10480943;28;20443;-74
2024/03/12 20:03:57;;;;;;;1999.90;999.90;;;;;;;8.34;100.00;101245.78;10496653;28;20117;-74
2024/03/12 20:09:00;;;;;;;1999.90;999.90;;;;;;;8.33;100.00;101238.84;10497709;28;20064;-74
2024/03/12 20:14:02;;;;;;;1999.90;999.90;;;;;;;8.26;100.00;101233.97;10496574;28;20060;-74
2024/03/12 20:19:06;;;;;;;1999.90;999.90;;;;;;;8.39;100.00;101232.53;10496328;28;20404;-74
2024/03/12 20:24:14;;;;;;;1999.90;999.90;;;;;;;8.25;100.00;101234.84;10497391;28;20086;-74
2024/03/12 20:29:17;;;;;;;1999.90;999.90;;;;;;;8.34;100.00;101242.31;10496181;28;20048;-74
2024/03/12 20:34:20;;;;;;;1999.90;999.90;;;;;;;8.21;100.00;101239.34;10495517;28;20512;-74
2024/03/12 20:39:27;;;;;;;1999.90;999.90;;;;;;;8.13;100.00;101241.41;10495423;28;20045;-74
2024/03/12 20:44:31;;;;;;;1999.90;999.90;;;;;;;8.11;100.00;101238.88;10496033;28;20048;-74
2024/03/12 20:49:34;;;;;;;1999.90;999.90;;;;;;;8.11;100.00;101233.66;10495560;28;20080;-74
2024/03/12 20:54:37;;;;;;;1999.90;999.90;;;;;;;8.21;100.00;101241.13;10495221;28;20118;-74
2024/03/12 20:59:42;;;;;;;1999.90;999.90;;;;;;;8.36;100.00;101251.78;10478397;28;20076;-74
2024/03/12 21:04:44;;;;;;;1999.90;999.90;;;;;;;8.12;100.00;101256.22;10478898;28;20488;-74
2024/03/12 21:09:46;;;;;;;1999.90;999.90;;;;;;;8.16;100.00;101243.91;10495087;28;20125;-74
2024/03/12 21:14:49;;;;;;;1999.90;999.90;;;;;;;8.07;100.00;101236.44;10495315;28;20084;-74
2024/03/12 21:19:55;;;;;;;1999.90;999.90;;;;;;;8.19;100.00;101235.97;10496096;28;20405;-74
2024/03/12 21:24:59;;;;;;;1999.90;999.90;;;;;;;8.10;100.00;101234.59;10495273;28;20048;-74
2024/03/12 21:30:08;;;;;;;1999.90;999.90;;;;;;;8.15;100.00;101229.16;10494676;28;20049;-74
2024/03/12 21:35:11;;;;;;;1999.90;999.90;;;;;;;7.89;100.00;101222.41;10496116;28;20080;-74
2024/03/12 21:40:15;;;;;;;1999.90;999.90;;;;;;;7.90;100.00;101209.28;10495433;28;20512;-74
2024/03/12 21:45:19;;;;;;;1999.90;999.90;;;;;;;7.92;100.00;101225.72;10494360;28;20048;-74
2024/03/12 21:50:21;;;;;;;1999.90;999.90;;;;;;;7.97;100.00;101221.19;10500393;28;20048;-74
2024/03/12 21:55:24;;;;;;;1999.90;999.90;;;;;;;7.94;100.00;101221.28;10502510;28;20131;-74
2024/03/12 22:00:28;;;;;;;1999.90;999.90;;;;;;;7.91;100.00;101223.19;10502862;28;20057;-74
2024/03/12 22:05:31;;;;;;;1999.90;999.90;;;;;;;7.84;100.00;101225.16;10502631;28;20049;-74
2024/03/12 22:10:34;;;;;;;1999.90;999.90;;;;;;;7.86;100.00;101212.91;10502387;28;20053;-74